SP2MO EPKK-EPKK
Flight info
| Callsign | SP2MO |
|---|---|
| Flight time | 0h 18m |
| Altitude | 1000 |
| Route | VFR PATTERNS |
| Aircraft | DA62/L-V/N |
Departure
| Time | 2026-05-06 19:40 |
|---|---|
| Airport | Kraków John Paul II International Airport (EPKK) |
Arrival
| Time | 2026-05-06 19:58 |
|---|---|
| Airport | Kraków John Paul II International Airport (EPKK) |
| Time | Latitude | Longitude | Altitude | Speed | Heading |
|---|---|---|---|---|---|
| 2026-05-06 18:56 | 50.07505 | 19.79381 | 784 ft | 0 kts | 77° |
| 2026-05-06 19:33 | 50.07519 | 19.79379 | 784 ft | 6 kts | 275° |
| 2026-05-06 19:34 | 50.07520 | 19.79295 | 784 ft | 6 kts | 8° |
| 2026-05-06 19:34 | 50.07556 | 19.79299 | 784 ft | 7 kts | 356° |
| 2026-05-06 19:34 | 50.07633 | 19.79284 | 784 ft | 6 kts | 58° |
| 2026-05-06 19:34 | 50.07645 | 19.79379 | 784 ft | 15 kts | 79° |
| 2026-05-06 19:35 | 50.07677 | 19.79614 | 784 ft | 26 kts | 77° |
| 2026-05-06 19:35 | 50.07711 | 19.79858 | 784 ft | 20 kts | 79° |
| 2026-05-06 19:35 | 50.07739 | 19.80055 | 784 ft | 17 kts | 78° |
| 2026-05-06 19:35 | 50.07779 | 19.80273 | 784 ft | 20 kts | 77° |
| 2026-05-06 19:36 | 50.07858 | 19.80332 | 784 ft | 8 kts | 354° |
| 2026-05-06 19:36 | 50.07860 | 19.80331 | 784 ft | 0 kts | 339° |
| 2026-05-06 19:37 | 50.07862 | 19.80331 | 784 ft | 3 kts | 340° |
| 2026-05-06 19:37 | 50.07945 | 19.80299 | 783 ft | 21 kts | 348° |
| 2026-05-06 19:37 | 50.08015 | 19.80221 | 783 ft | 15 kts | 271° |
| 2026-05-06 19:38 | 50.08003 | 19.80124 | 784 ft | 0 kts | 258° |
| 2026-05-06 19:38 | 50.07966 | 19.79882 | 782 ft | 56 kts | 259° |
| 2026-05-06 19:39 | 50.07819 | 19.79037 | 821 ft | 98 kts | 258° |
| 2026-05-06 19:39 | 50.07673 | 19.77897 | 966 ft | 115 kts | 261° |
| 2026-05-06 19:39 | 50.07523 | 19.76671 | 1120 ft | 116 kts | 260° |
| 2026-05-06 19:39 | 50.07237 | 19.75507 | 1327 ft | 114 kts | 226° |
| 2026-05-06 19:40 | 50.06503 | 19.75254 | 1413 ft | 115 kts | 164° |
| 2026-05-06 19:40 | 50.05917 | 19.75998 | 1501 ft | 113 kts | 102° |
| 2026-05-06 19:40 | 50.06069 | 19.77222 | 1470 ft | 119 kts | 72° |
| 2026-05-06 19:40 | 50.06333 | 19.78458 | 1444 ft | 123 kts | 73° |
| 2026-05-06 19:41 | 50.06603 | 19.79729 | 1398 ft | 124 kts | 70° |
| 2026-05-06 19:41 | 50.06896 | 19.80995 | 1371 ft | 121 kts | 71° |
| 2026-05-06 19:41 | 50.07087 | 19.81807 | 1350 ft | 117 kts | 69° |
| 2026-05-06 19:41 | 50.07487 | 19.83306 | 1323 ft | 110 kts | 66° |
| 2026-05-06 19:42 | 50.07701 | 19.84034 | 1296 ft | 109 kts | 64° |
| 2026-05-06 19:42 | 50.07951 | 19.85130 | 1370 ft | 105 kts | 90° |
| 2026-05-06 19:42 | 50.07590 | 19.86044 | 1386 ft | 107 kts | 154° |
| 2026-05-06 19:42 | 50.06869 | 19.85978 | 1373 ft | 111 kts | 213° |
| 2026-05-06 19:43 | 50.06410 | 19.84996 | 1341 ft | 117 kts | 252° |
| 2026-05-06 19:43 | 50.06541 | 19.83848 | 1457 ft | 115 kts | 332° |
| 2026-05-06 19:43 | 50.07152 | 19.84367 | 1338 ft | 121 kts | 76° |
| 2026-05-06 19:43 | 50.07469 | 19.85620 | 1289 ft | 120 kts | 44° |
| 2026-05-06 19:44 | 50.08180 | 19.85866 | 1311 ft | 103 kts | 327° |
| 2026-05-06 19:44 | 50.08402 | 19.84889 | 1218 ft | 95 kts | 279° |
| 2026-05-06 19:44 | 50.08435 | 19.83898 | 1148 ft | 90 kts | 268° |
| 2026-05-06 19:44 | 50.08358 | 19.82948 | 1066 ft | 89 kts | 263° |
| 2026-05-06 19:45 | 50.08240 | 19.81958 | 982 ft | 96 kts | 262° |
| 2026-05-06 19:45 | 50.08107 | 19.80911 | 883 ft | 99 kts | 259° |
| 2026-05-06 19:45 | 50.07965 | 19.79859 | 793 ft | 97 kts | 259° |
| 2026-05-06 19:45 | 50.07838 | 19.78959 | 785 ft | 83 kts | 260° |
| 2026-05-06 19:46 | 50.07688 | 19.77830 | 846 ft | 120 kts | 261° |
| 2026-05-06 19:46 | 50.07503 | 19.76536 | 1101 ft | 123 kts | 256° |
| 2026-05-06 19:46 | 50.07088 | 19.75426 | 1338 ft | 117 kts | 211° |
| 2026-05-06 19:46 | 50.06321 | 19.75419 | 1536 ft | 116 kts | 163° |
| 2026-05-06 19:47 | 50.05653 | 19.76098 | 1700 ft | 117 kts | 116° |
| 2026-05-06 19:47 | 50.05729 | 19.77368 | 1821 ft | 126 kts | 72° |
| 2026-05-06 19:47 | 50.06058 | 19.78684 | 1873 ft | 140 kts | 70° |
| 2026-05-06 19:47 | 50.06446 | 19.80100 | 1796 ft | 140 kts | 74° |
| 2026-05-06 19:48 | 50.06725 | 19.81547 | 1705 ft | 138 kts | 74° |
| 2026-05-06 19:48 | 50.07049 | 19.82963 | 1515 ft | 136 kts | 69° |
| 2026-05-06 19:48 | 50.07598 | 19.83925 | 1450 ft | 108 kts | 18° |
| 2026-05-06 19:48 | 50.08276 | 19.83662 | 1371 ft | 109 kts | 317° |
| 2026-05-06 19:49 | 50.08348 | 19.82589 | 1203 ft | 100 kts | 257° |
| 2026-05-06 19:49 | 50.08194 | 19.81615 | 1009 ft | 88 kts | 257° |
| 2026-05-06 19:49 | 50.08071 | 19.80706 | 849 ft | 84 kts | 260° |
| 2026-05-06 19:49 | 50.07963 | 19.79831 | 783 ft | 71 kts | 261° |
| 2026-05-06 19:50 | 50.07853 | 19.79045 | 824 ft | 92 kts | 261° |
| 2026-05-06 19:50 | 50.07679 | 19.77911 | 983 ft | 118 kts | 256° |
| 2026-05-06 19:50 | 50.07448 | 19.76673 | 1199 ft | 127 kts | 253° |
| 2026-05-06 19:50 | 50.07108 | 19.75369 | 1350 ft | 125 kts | 223° |
| 2026-05-06 19:51 | 50.06359 | 19.75347 | 1529 ft | 115 kts | 158° |
| 2026-05-06 19:51 | 50.06049 | 19.76364 | 1544 ft | 120 kts | 80° |
| 2026-05-06 19:51 | 50.06170 | 19.77678 | 1603 ft | 118 kts | 95° |
| 2026-05-06 19:51 | 50.05799 | 19.78725 | 1740 ft | 111 kts | 148° |
| 2026-05-06 19:52 | 50.05057 | 19.78695 | 1679 ft | 122 kts | 222° |
| 2026-05-06 19:52 | 50.04768 | 19.77449 | 1606 ft | 128 kts | 258° |
| 2026-05-06 19:52 | 50.04353 | 19.76266 | 1571 ft | 123 kts | 215° |
| 2026-05-06 19:52 | 50.03571 | 19.75983 | 1556 ft | 120 kts | 160° |
| 2026-05-06 19:53 | 50.03077 | 19.76968 | 1494 ft | 122 kts | 94° |
| 2026-05-06 19:53 | 50.03288 | 19.78273 | 1386 ft | 128 kts | 70° |
| 2026-05-06 19:53 | 50.03735 | 19.79446 | 1384 ft | 121 kts | 31° |
| 2026-05-06 19:53 | 50.04531 | 19.79445 | 1410 ft | 120 kts | 327° |
| 2026-05-06 19:54 | 50.04957 | 19.78395 | 1538 ft | 115 kts | 275° |
| 2026-05-06 19:54 | 50.04847 | 19.77117 | 1536 ft | 124 kts | 255° |
| 2026-05-06 19:54 | 50.04521 | 19.75820 | 1528 ft | 124 kts | 221° |
| 2026-05-06 19:54 | 50.03780 | 19.75717 | 1677 ft | 120 kts | 147° |
| 2026-05-06 19:55 | 50.03450 | 19.76909 | 1651 ft | 131 kts | 85° |
| 2026-05-06 19:55 | 50.03674 | 19.78359 | 1451 ft | 145 kts | 77° |
| 2026-05-06 19:55 | 50.03914 | 19.79828 | 1538 ft | 133 kts | 67° |
| 2026-05-06 19:55 | 50.04532 | 19.80848 | 1604 ft | 131 kts | 56° |
| 2026-05-06 19:56 | 50.04890 | 19.82158 | 1499 ft | 135 kts | 68° |
| 2026-05-06 19:56 | 50.05303 | 19.83492 | 1441 ft | 135 kts | 62° |
| 2026-05-06 19:56 | 50.05797 | 19.84678 | 1460 ft | 131 kts | 44° |
| 2026-05-06 19:56 | 50.06598 | 19.84746 | 1493 ft | 126 kts | 333° |
| 2026-05-06 19:57 | 50.07374 | 19.84130 | 1456 ft | 117 kts | 336° |
| 2026-05-06 19:57 | 50.08056 | 19.83578 | 1421 ft | 112 kts | 326° |
| 2026-05-06 19:57 | 50.08343 | 19.82598 | 1291 ft | 97 kts | 267° |
| 2026-05-06 19:57 | 50.08203 | 19.81589 | 1043 ft | 92 kts | 258° |
| 2026-05-06 19:58 | 50.08060 | 19.80605 | 875 ft | 95 kts | 259° |
| 2026-05-06 19:58 | 50.07922 | 19.79618 | 784 ft | 81 kts | 259° |
| 2026-05-06 19:58 | 50.07831 | 19.79076 | 784 ft | 17 kts | 228° |
| 2026-05-06 19:58 | 50.07767 | 19.79079 | 784 ft | 9 kts | 157° |
| 2026-05-06 19:59 | 50.07711 | 19.79104 | 784 ft | 8 kts | 167° |
| 2026-05-06 19:59 | 50.07643 | 19.79131 | 784 ft | 15 kts | 162° |
| 2026-05-06 19:59 | 50.07518 | 19.79168 | 784 ft | 19 kts | 178° |
| 2026-05-06 19:59 | 50.07427 | 19.79149 | 784 ft | 8 kts | 208° |
| 2026-05-06 20:00 | 50.07416 | 19.79127 | 784 ft | 0 kts | 254° |